KDNS/DNS METAR and TAF weather

Enter ICAO airport designator
Station Type Date Time Source
KDNS METAR 2021/10/22 19:55 UTC NOAA

KDNS 221955Z AUTO 17010KT 10SM CLR 10/M01 A3001 RMK AO2


Station Type Date Time Source
KDNS Decoded METAR 2021/10/22 19:55 UTC NOAA

Denison, IA, United States (KDNS) 41-59N 095-23W
Oct 22, 2021 - 03:55 PM EDT / 2021.10.22 1955 UTC
Wind: from the S (170 degrees) at 12 MPH (10 KT):0
Visibility: 10 mile(s):0
Sky conditions: clear
Temperature: 50 F (10 C)
Dew Point: 30 F (-1 C)
Relative Humidity: 46%
Pressure (altimeter): 30.01 in. Hg (1016 hPa)
ob: KDNS 221955Z AUTO 17010KT 10SM CLR 10/M01 A3001 RMK AO2
cycle: 20

Station Type Date Time Source
KDNS TAF UTC NOAA

Error!

Example: see airport list